createdAt,value
2022-10-18T00:02:17.002Z,2.17
2022-10-18T00:04:45.333Z,2.08
2022-10-18T00:07:13.678Z,2.00
2022-10-18T00:09:42.163Z,2.03
2022-10-18T00:12:11.801Z,1.80
2022-10-18T00:14:40.075Z,1.83
2022-10-18T00:17:08.389Z,2.00
2022-10-18T00:19:36.731Z,2.00
2022-10-18T00:22:05.055Z,2.10
2022-10-18T00:24:33.343Z,2.25
2022-10-18T00:27:01.606Z,2.10
2022-10-18T00:29:31.248Z,2.08
2022-10-18T00:31:59.594Z,2.03
2022-10-18T00:34:27.965Z,2.03
2022-10-18T00:36:56.296Z,1.95
2022-10-18T00:39:24.612Z,1.88
2022-10-18T00:41:53.146Z,2.00
2022-10-18T00:44:58.350Z,2.17
2022-10-18T00:47:28.222Z,1.95
2022-10-18T00:49:59.177Z,2.20
2022-10-18T00:52:34.753Z,2.15
2022-10-18T00:55:04.071Z,2.03
2022-10-18T00:57:33.314Z,2.10
2022-10-18T01:00:01.760Z,2.40
2022-10-18T01:02:33.718Z,2.28
2022-10-18T01:05:02.190Z,2.30
2022-10-18T01:07:47.349Z,2.65
2022-10-18T01:10:27.892Z,2.50
2022-10-18T01:13:09.663Z,2.30
2022-10-18T01:15:47.490Z,2.70
2022-10-18T01:18:23.863Z,2.30
2022-10-18T01:21:25.339Z,2.33
2022-10-18T01:24:21.738Z,2.20
2022-10-18T01:27:18.182Z,2.13
2022-10-18T01:30:01.951Z,2.60
2022-10-18T01:32:38.504Z,2.17
2022-10-18T01:35:14.776Z,2.42
2022-10-18T01:37:46.889Z,2.08
2022-10-18T01:40:19.655Z,2.22
2022-10-18T01:42:49.973Z,2.20
2022-10-18T01:45:20.021Z,2.83
2022-10-18T01:47:50.992Z,2.28
2022-10-18T01:50:29.348Z,2.38
2022-10-18T01:52:58.110Z,2.40
2022-10-18T01:55:32.367Z,2.38
2022-10-18T01:58:08.871Z,2.20
2022-10-18T02:00:41.015Z,2.20
2022-10-18T02:03:16.434Z,2.20
2022-10-18T02:05:49.589Z,2.22
2022-10-18T02:08:26.601Z,2.25
2022-10-18T02:11:01.818Z,2.60
2022-10-18T02:13:35.486Z,2.50
2022-10-18T02:16:09.125Z,2.08
2022-10-18T02:18:43.146Z,2.67
2022-10-18T02:21:15.209Z,2.25
2022-10-18T02:23:45.980Z,2.40
2022-10-18T02:26:15.533Z,2.30
2022-10-18T02:28:44.676Z,2.67
2022-10-18T02:31:19.833Z,2.33
2022-10-18T02:33:54.646Z,2.45
2022-10-18T02:36:26.968Z,2.83
2022-10-18T02:39:14.270Z,2.90
2022-10-18T02:41:43.041Z,2.70
2022-10-18T02:44:11.665Z,2.30
2022-10-18T02:46:41.230Z,2.50
2022-10-18T02:49:10.926Z,2.55
2022-10-18T02:51:39.228Z,2.85
2022-10-18T02:54:08.349Z,2.75
2022-10-18T02:56:36.878Z,2.58
2022-10-18T02:59:07.294Z,2.65
2022-10-18T03:01:36.171Z,2.70
2022-10-18T03:04:05.308Z,2.70
2022-10-18T03:06:35.161Z,2.70
2022-10-18T03:09:04.294Z,2.58
2022-10-18T03:11:32.845Z,2.70
2022-10-18T03:14:01.222Z,2.45
2022-10-18T03:16:29.606Z,2.63
2022-10-18T03:18:57.936Z,2.65
2022-10-18T03:21:26.354Z,2.72
2022-10-18T03:23:56.076Z,3.03
2022-10-18T03:26:24.408Z,2.67
2022-10-18T03:28:52.826Z,2.95
2022-10-18T03:31:21.307Z,2.53
2022-10-18T03:33:49.849Z,2.63
2022-10-18T03:36:18.246Z,2.55
2022-10-18T03:38:46.577Z,2.38
2022-10-18T03:41:16.263Z,2.78
2022-10-18T03:43:44.641Z,2.65
2022-10-18T03:46:13.301Z,2.70
2022-10-18T03:48:41.618Z,2.55
2022-10-18T03:51:09.960Z,2.63
2022-10-18T03:53:38.307Z,2.70
2022-10-18T03:56:07.273Z,2.50
2022-10-18T03:58:36.984Z,2.67
2022-10-18T04:01:05.253Z,2.80
2022-10-18T04:03:33.556Z,3.10
2022-10-18T04:06:03.478Z,2.30
2022-10-18T04:08:31.819Z,2.50
2022-10-18T04:11:00.170Z,2.40
2022-10-18T04:13:28.557Z,2.67
2022-10-18T04:15:58.224Z,2.28
2022-10-18T04:18:26.639Z,2.65
2022-10-18T04:20:54.938Z,2.42
2022-10-18T04:23:23.270Z,2.55
2022-10-18T04:25:51.607Z,2.75
2022-10-18T04:28:19.918Z,2.78
2022-10-18T04:30:51.330Z,2.67
2022-10-18T04:33:21.518Z,2.63
2022-10-18T04:35:52.932Z,2.45
2022-10-18T04:38:21.383Z,2.78
2022-10-18T04:40:49.713Z,2.30
2022-10-18T04:43:18.008Z,2.70
2022-10-18T04:45:46.652Z,2.60
2022-10-18T04:48:14.976Z,2.53
2022-10-18T04:50:44.838Z,2.63
2022-10-18T04:53:15.933Z,2.60
2022-10-18T04:55:45.371Z,2.72
2022-10-18T04:58:13.945Z,2.67
2022-10-18T05:00:42.636Z,2.58
2022-10-18T05:03:13.532Z,2.90
2022-10-18T05:06:00.842Z,2.90
2022-10-18T05:08:33.098Z,2.80
2022-10-18T05:11:02.152Z,3.15
2022-10-18T05:13:31.299Z,3.28
2022-10-18T05:16:00.687Z,2.80
2022-10-18T05:18:29.462Z,2.83
2022-10-18T05:20:58.221Z,2.83
2022-10-18T05:23:26.773Z,3.00
2022-10-18T05:25:56.446Z,2.80
2022-10-18T05:28:41.456Z,2.63
2022-10-18T05:31:12.604Z,2.65
2022-10-18T05:33:41.156Z,2.53
2022-10-18T05:36:10.757Z,2.83
2022-10-18T05:38:41.877Z,2.67
2022-10-18T05:41:11.961Z,3.20
2022-10-18T05:43:40.920Z,3.90
2022-10-18T05:46:14.701Z,3.97
2022-10-18T05:48:44.860Z,3.95
2022-10-18T05:51:13.443Z,3.28
2022-10-18T05:53:41.773Z,4.10
2022-10-18T05:56:12.668Z,3.65
2022-10-18T05:58:41.194Z,3.22
2022-10-18T06:01:10.945Z,3.47
2022-10-18T06:03:39.397Z,3.00
2022-10-18T06:06:10.486Z,3.53
2022-10-18T06:08:39.909Z,3.67
2022-10-18T06:11:09.859Z,3.50
2022-10-18T06:13:43.043Z,3.42
2022-10-18T06:16:12.617Z,3.65
2022-10-18T06:18:41.433Z,3.58
2022-10-18T06:21:10.350Z,3.65
2022-10-18T06:23:38.634Z,3.53
2022-10-18T06:26:08.476Z,4.30
2022-10-18T06:28:38.344Z,3.75
2022-10-18T06:31:08.484Z,3.70
2022-10-18T06:33:37.065Z,4.18
2022-10-18T06:36:08.430Z,4.53
2022-10-18T06:38:39.731Z,4.90
2022-10-18T06:41:08.783Z,4.20
2022-10-18T06:43:37.183Z,5.50
2022-10-18T06:46:08.896Z,5.38
2022-10-18T06:48:38.008Z,5.85
2022-10-18T06:51:08.764Z,5.45
2022-10-18T06:53:44.627Z,5.13
2022-10-18T06:56:27.375Z,6.43
2022-10-18T06:58:55.804Z,6.45
2022-10-18T07:01:25.600Z,7.03
2022-10-18T07:03:55.148Z,6.80
2022-10-18T07:06:24.509Z,6.82
2022-10-18T07:08:54.174Z,6.65
2022-10-18T07:11:25.057Z,7.13
2022-10-18T07:13:55.054Z,6.40
2022-10-18T07:16:24.724Z,6.95
2022-10-18T07:18:53.404Z,6.07
2022-10-18T07:21:24.682Z,7.40
2022-10-18T07:23:53.587Z,6.90
2022-10-18T07:26:25.558Z,7.20
2022-10-18T07:28:57.716Z,7.07
2022-10-18T07:32:17.161Z,7.47
2022-10-18T07:34:48.555Z,7.50
2022-10-18T07:37:16.971Z,7.82
2022-10-18T07:39:45.317Z,7.65
2022-10-18T07:42:13.669Z,7.82
2022-10-18T07:44:42.053Z,7.75
2022-10-18T07:47:12.032Z,8.48
2022-10-18T07:49:40.547Z,7.82
2022-10-18T07:52:10.237Z,7.97
2022-10-18T07:54:38.613Z,8.05
2022-10-18T07:57:06.998Z,9.07
2022-10-18T07:59:35.278Z,9.38
2022-10-18T08:02:03.615Z,9.52
2022-10-18T08:04:31.989Z,8.90
2022-10-18T08:07:00.276Z,8.93
2022-10-18T08:09:30.020Z,8.77
2022-10-18T08:11:58.382Z,8.82
2022-10-18T08:14:26.821Z,8.57
2022-10-18T08:16:56.549Z,8.93
2022-10-18T08:19:24.949Z,9.13
2022-10-18T08:21:53.317Z,9.40
2022-10-18T08:24:21.596Z,8.60
2022-10-18T08:26:51.551Z,8.95
2022-10-18T08:29:26.730Z,9.25
2022-10-18T08:31:56.391Z,8.57
2022-10-18T08:34:24.809Z,9.70
2022-10-18T08:36:53.155Z,9.38
2022-10-18T08:39:21.605Z,8.48
2022-10-18T08:42:17.439Z,9.32
2022-10-18T08:44:48.265Z,10.18
2022-10-18T08:47:20.634Z,9.02
2022-10-18T08:49:52.795Z,9.55
2022-10-18T08:52:32.648Z,9.02
2022-10-18T08:55:03.713Z,8.68
2022-10-18T08:57:34.158Z,9.93
2022-10-18T09:00:03.332Z,9.40
2022-10-18T09:02:47.960Z,10.52
2022-10-18T09:05:25.939Z,9.55
2022-10-18T09:08:33.034Z,11.00
2022-10-18T09:11:10.989Z,11.13
2022-10-18T09:14:00.335Z,10.35
2022-10-18T09:16:38.606Z,11.23
2022-10-18T09:19:19.056Z,11.13
2022-10-18T09:21:53.307Z,11.68
2022-10-18T09:24:28.187Z,11.63
2022-10-18T09:27:06.305Z,11.57
2022-10-18T09:29:50.759Z,11.40
2022-10-18T09:32:28.981Z,12.15
2022-10-18T09:35:00.818Z,13.48
2022-10-18T09:37:33.378Z,12.65
2022-10-18T09:40:07.759Z,13.73
2022-10-18T09:42:40.359Z,13.00
2022-10-18T09:45:28.226Z,12.32
2022-10-18T09:48:06.905Z,12.68
2022-10-18T09:50:40.272Z,12.55
2022-10-18T09:53:19.050Z,13.52
2022-10-18T09:56:01.671Z,13.07
2022-10-18T09:58:41.496Z,13.10
2022-10-18T10:01:12.564Z,12.63
2022-10-18T10:03:42.282Z,13.18
2022-10-18T10:06:18.564Z,12.93
2022-10-18T10:08:50.435Z,13.45
2022-10-18T10:11:34.304Z,14.18
2022-10-18T10:14:11.106Z,13.48
2022-10-18T10:16:50.922Z,13.30
2022-10-18T10:19:23.296Z,13.65
2022-10-18T10:21:53.728Z,15.35
2022-10-18T10:24:31.287Z,13.93
2022-10-18T10:27:02.555Z,13.98
2022-10-18T10:30:07.337Z,13.68
2022-10-18T10:32:47.920Z,14.30
2022-10-18T10:35:54.584Z,15.63
2022-10-18T10:38:27.043Z,14.18
2022-10-18T10:40:55.820Z,14.40
2022-10-18T10:43:42.257Z,14.65
2022-10-18T10:46:13.229Z,13.90
2022-10-18T10:48:49.292Z,15.20
2022-10-18T10:51:29.239Z,16.20
2022-10-18T10:54:02.924Z,19.02
2022-10-18T10:56:33.291Z,18.58
2022-10-18T10:59:10.391Z,18.35
2022-10-18T11:01:38.752Z,17.40
2022-10-18T11:04:27.506Z,15.77
2022-10-18T11:07:07.799Z,21.13
2022-10-18T11:09:46.576Z,20.95
2022-10-18T11:12:29.617Z,20.90
2022-10-18T11:15:09.955Z,17.63
2022-10-18T11:17:45.096Z,17.98
2022-10-18T11:20:23.098Z,17.50
2022-10-18T11:23:01.174Z,17.65
2022-10-18T11:25:45.461Z,15.88
2022-10-18T11:28:25.145Z,19.60
2022-10-18T11:31:07.177Z,18.65
2022-10-18T11:34:10.705Z,18.90
2022-10-18T11:36:50.398Z,19.85
2022-10-18T11:42:18.683Z,22.33
2022-10-18T11:44:56.814Z,21.58
2022-10-18T11:47:34.576Z,21.40
2022-10-18T11:50:12.311Z,20.27
2022-10-18T11:52:49.687Z,19.33
2022-10-18T11:55:33.256Z,17.73
2022-10-18T11:58:11.342Z,16.27
2022-10-18T12:00:49.067Z,16.65
2022-10-18T12:03:28.201Z,17.45
2022-10-18T12:05:59.127Z,19.42
2022-10-18T12:08:34.443Z,18.55
2022-10-18T12:11:11.265Z,19.30
2022-10-18T12:13:45.308Z,19.80
2022-10-18T12:16:14.021Z,17.98
2022-10-18T12:18:50.681Z,17.48
2022-10-18T12:21:25.484Z,15.95
2022-10-18T12:23:59.496Z,17.38
2022-10-18T12:26:29.756Z,15.00
2022-10-18T12:29:07.366Z,13.80
2022-10-18T12:31:41.160Z,12.70
2022-10-18T12:34:31.081Z,13.30
2022-10-18T12:37:27.629Z,12.35
2022-10-18T12:40:20.277Z,13.18
2022-10-18T12:42:51.399Z,11.93
2022-10-18T12:45:32.238Z,12.15
2022-10-18T12:48:02.018Z,11.05
2022-10-18T12:50:35.942Z,15.05
2022-10-18T12:53:08.868Z,16.65
2022-10-18T12:55:40.256Z,16.27
2022-10-18T12:58:25.328Z,13.95
2022-10-18T13:01:01.166Z,13.75
2022-10-18T13:03:39.115Z,11.90
2022-10-18T13:06:07.904Z,10.88
2022-10-18T13:08:42.037Z,9.35
2022-10-18T13:11:35.956Z,9.82
2022-10-18T13:14:26.055Z,9.25
2022-10-18T13:17:00.862Z,8.70
2022-10-18T13:19:36.808Z,10.07
2022-10-18T13:22:20.792Z,8.30
2022-10-18T13:25:02.200Z,9.00
2022-10-18T13:27:42.894Z,8.02
2022-10-18T13:30:36.475Z,7.53
2022-10-18T13:33:29.735Z,6.95
2022-10-18T13:35:59.767Z,6.45
2022-10-18T13:38:36.450Z,5.50
2022-10-18T13:41:07.662Z,4.88
2022-10-18T13:44:10.862Z,4.90
2022-10-18T13:47:10.699Z,4.13
2022-10-18T13:49:50.565Z,4.25
2022-10-18T13:52:26.754Z,4.25
2022-10-18T13:55:17.143Z,4.32
2022-10-18T13:57:59.309Z,4.10
2022-10-18T14:00:49.509Z,3.70
2022-10-18T14:06:24.809Z,3.40
2022-10-18T14:08:58.873Z,3.40
2022-10-18T14:11:34.151Z,3.22
2022-10-18T14:14:13.821Z,3.28
2022-10-18T14:16:50.705Z,2.90
2022-10-18T14:19:27.835Z,2.80
2022-10-18T14:22:00.319Z,3.10
2022-10-18T14:24:30.173Z,2.90
2022-10-18T14:27:18.742Z,3.20
2022-10-18T14:29:47.984Z,2.75
2022-10-18T14:32:27.765Z,3.15
2022-10-18T14:35:20.644Z,2.53
2022-10-18T14:37:47.736Z,2.80
2022-10-18T14:40:31.353Z,2.60
2022-10-18T14:43:04.153Z,2.40
2022-10-18T14:45:32.445Z,1.98
2022-10-18T14:48:14.540Z,1.98
2022-10-18T14:50:44.433Z,2.40
2022-10-18T14:53:20.935Z,2.33
2022-10-18T14:55:56.500Z,2.03
2022-10-18T14:58:30.132Z,2.35
2022-10-18T15:01:01.675Z,2.17
2022-10-18T15:03:36.752Z,2.30
2022-10-18T15:06:08.407Z,2.25
2022-10-18T15:08:40.755Z,2.15
2022-10-18T15:11:13.358Z,1.88
2022-10-18T15:13:49.253Z,2.03
2022-10-18T15:16:19.510Z,1.90
2022-10-18T15:19:02.949Z,1.73
2022-10-18T15:21:31.473Z,1.88
2022-10-18T15:24:21.687Z,1.95
2022-10-18T15:26:51.436Z,2.03
2022-10-18T15:29:20.928Z,1.80
2022-10-18T15:31:50.848Z,1.80
2022-10-18T15:34:24.601Z,1.90
2022-10-18T15:36:55.618Z,1.90
2022-10-18T15:39:25.768Z,1.90
2022-10-18T15:41:55.722Z,1.60
2022-10-18T15:44:26.803Z,1.98
2022-10-18T15:46:56.861Z,2.00
2022-10-18T15:49:51.995Z,1.50
2022-10-18T15:57:48.789Z,1.60
2022-10-18T16:00:20.626Z,2.08
2022-10-18T16:02:48.976Z,1.58
2022-10-18T16:05:18.971Z,1.70
2022-10-18T16:07:52.003Z,1.70
2022-10-18T16:10:20.382Z,1.70
2022-10-18T16:12:48.736Z,1.60
2022-10-18T16:15:17.087Z,1.50
2022-10-18T16:17:45.422Z,1.48
2022-10-18T16:20:21.578Z,1.30
2022-10-18T16:22:50.011Z,1.58
2022-10-18T16:25:18.708Z,1.50
2022-10-18T16:27:47.001Z,1.50
2022-10-18T16:30:18.675Z,1.52
2022-10-18T16:32:48.822Z,1.50
2022-10-18T16:35:17.110Z,1.42
2022-10-18T16:37:46.827Z,1.42
2022-10-18T16:40:23.455Z,1.45
2022-10-18T16:42:51.845Z,1.50
2022-10-18T16:45:20.193Z,1.85
2022-10-18T16:47:48.620Z,1.40
2022-10-18T16:50:18.695Z,1.60
2022-10-18T16:52:48.521Z,1.40
2022-10-18T16:55:22.068Z,1.45
2022-10-18T16:57:51.333Z,1.90
2022-10-18T17:00:23.057Z,1.52
2022-10-18T17:02:51.557Z,1.60
2022-10-18T17:05:20.133Z,1.60
2022-10-18T17:07:50.059Z,1.27
2022-10-18T17:10:21.772Z,1.38
2022-10-18T17:12:50.110Z,1.52
2022-10-18T17:15:19.433Z,1.40
2022-10-18T17:17:49.922Z,1.50
2022-10-18T17:20:22.252Z,1.50
2022-10-18T17:22:51.914Z,1.60
2022-10-18T17:25:21.155Z,1.75
2022-10-18T17:27:49.478Z,1.60
2022-10-18T17:30:17.993Z,1.83
2022-10-18T17:32:46.284Z,1.88
2022-10-18T17:35:14.554Z,1.60
2022-10-18T17:37:45.414Z,1.70
2022-10-18T17:40:15.971Z,2.00
2022-10-18T17:42:44.450Z,1.58
2022-10-18T17:45:13.085Z,1.70
2022-10-18T17:47:41.460Z,1.60
2022-10-18T17:50:10.250Z,1.70
2022-10-18T17:55:12.440Z,1.50
2022-10-18T17:57:43.157Z,1.60
2022-10-18T18:00:13.746Z,1.58
2022-10-18T18:02:43.517Z,1.67
2022-10-18T18:05:12.609Z,1.65
2022-10-18T18:07:40.915Z,1.60
2022-10-18T18:10:09.777Z,1.88
2022-10-18T18:12:38.079Z,1.83
2022-10-18T18:15:08.707Z,1.50
2022-10-18T18:17:55.960Z,1.60
2022-10-18T18:20:25.311Z,1.73
2022-10-18T18:22:53.990Z,1.50
2022-10-18T18:25:22.301Z,1.63
2022-10-18T18:27:50.903Z,1.80
2022-10-18T18:30:21.757Z,1.73
2022-10-18T18:32:50.049Z,1.67
2022-10-18T18:35:18.597Z,1.83
2022-10-18T18:37:50.948Z,1.67
2022-10-18T18:40:19.422Z,1.60
2022-10-18T18:43:01.663Z,1.70
2022-10-18T18:45:37.274Z,1.70
2022-10-18T18:48:06.011Z,1.83
2022-10-18T18:50:37.134Z,1.90
2022-10-18T18:53:05.432Z,1.70
2022-10-18T18:55:34.502Z,1.88
2022-10-18T18:58:02.786Z,1.95
2022-10-18T19:00:31.042Z,1.80
2022-10-18T19:03:00.646Z,1.80
2022-10-18T19:05:29.344Z,2.10
2022-10-18T19:07:57.588Z,1.83
2022-10-18T19:10:26.085Z,2.10
2022-10-18T19:12:54.592Z,2.28
2022-10-18T19:15:23.457Z,2.00
2022-10-18T19:17:51.702Z,1.90
2022-10-18T19:20:21.421Z,1.90
2022-10-18T19:22:49.726Z,2.20
2022-10-18T19:25:18.153Z,1.98
2022-10-18T19:27:46.752Z,2.13
2022-10-18T19:30:15.069Z,2.08
2022-10-18T19:32:43.404Z,2.05
2022-10-18T19:35:11.716Z,1.90
2022-10-18T19:37:41.385Z,1.98
2022-10-18T19:40:10.604Z,2.50
2022-10-18T19:42:39.125Z,2.00
2022-10-18T19:45:08.960Z,2.00
2022-10-18T19:47:38.305Z,2.03
2022-10-18T19:50:07.543Z,2.03
2022-10-18T19:52:36.175Z,1.80
2022-10-18T19:55:07.122Z,2.15
2022-10-18T19:57:35.389Z,2.00
2022-10-18T20:00:08.125Z,2.08
2022-10-18T20:02:39.836Z,2.00
2022-10-18T20:05:08.623Z,2.03
2022-10-18T20:07:37.442Z,1.80
2022-10-18T20:10:09.230Z,1.90
2022-10-18T20:12:37.591Z,1.80
2022-10-18T20:15:08.787Z,1.70
2022-10-18T20:17:37.147Z,1.55
2022-10-18T20:20:06.010Z,1.80
2022-10-18T20:22:34.553Z,1.85
2022-10-18T20:25:02.928Z,1.70
2022-10-18T20:27:32.852Z,1.92
2022-10-18T20:30:01.416Z,2.20
2022-10-18T20:32:29.715Z,2.08
2022-10-18T20:34:58.051Z,2.22
2022-10-18T20:37:26.347Z,2.40
2022-10-18T20:39:54.666Z,2.20
2022-10-18T20:42:22.934Z,1.88
2022-10-18T20:44:52.667Z,2.28
2022-10-18T20:47:21.009Z,1.90
2022-10-18T20:49:49.281Z,1.92
2022-10-18T20:52:17.600Z,1.95
2022-10-18T20:54:45.853Z,1.95
2022-10-18T20:57:14.101Z,2.05
2022-10-18T20:59:42.412Z,2.45
2022-10-18T21:02:13.708Z,2.00
2022-10-18T21:04:42.474Z,1.98
2022-10-18T21:07:10.854Z,1.70
2022-10-18T21:09:39.127Z,1.88
2022-10-18T21:12:07.416Z,2.03
2022-10-18T21:14:35.728Z,1.90
2022-10-18T21:17:04.100Z,1.90
2022-10-18T21:19:34.206Z,1.63
2022-10-18T21:22:02.526Z,1.80
2022-10-18T21:24:31.094Z,1.77
2022-10-18T21:27:00.307Z,1.70
2022-10-18T21:29:30.868Z,1.80
2022-10-18T21:31:59.662Z,1.63
2022-10-18T21:34:28.062Z,1.63
2022-10-18T21:36:57.747Z,1.70
2022-10-18T21:39:31.725Z,1.42
2022-10-18T21:42:09.652Z,1.73
2022-10-18T21:44:37.995Z,1.60
2022-10-18T21:47:09.129Z,1.58
2022-10-18T21:49:38.594Z,1.35
2022-10-18T21:52:08.256Z,1.63
2022-10-18T21:54:43.877Z,1.65
2022-10-18T21:57:12.183Z,1.60
2022-10-18T21:59:40.528Z,1.58
2022-10-18T22:02:13.577Z,1.73
2022-10-18T22:04:44.192Z,1.60
2022-10-18T22:07:13.870Z,1.48
2022-10-18T22:09:47.728Z,1.40
2022-10-18T22:12:21.682Z,1.50
2022-10-18T22:14:50.018Z,1.33
2022-10-18T22:17:18.398Z,1.50
2022-10-18T22:19:47.759Z,1.30
2022-10-18T22:22:17.449Z,1.20
2022-10-18T22:24:49.216Z,1.40
2022-10-18T22:27:17.583Z,1.30
2022-10-18T22:29:45.866Z,1.40
2022-10-18T22:32:14.153Z,1.30
2022-10-18T22:34:42.602Z,1.40
2022-10-18T22:37:11.000Z,1.25
2022-10-18T22:39:41.209Z,1.30
2022-10-18T22:42:09.506Z,1.30
2022-10-18T22:44:37.837Z,1.42
2022-10-18T22:47:06.121Z,1.25
2022-10-18T22:49:34.385Z,1.48
2022-10-18T22:52:02.824Z,1.25
2022-10-18T22:54:31.171Z,1.30
2022-10-18T22:57:00.846Z,1.30
2022-10-18T22:59:29.153Z,1.40
2022-10-18T23:01:58.380Z,1.50
2022-10-18T23:04:27.733Z,1.30
2022-10-18T23:06:56.018Z,1.20
2022-10-18T23:09:24.301Z,1.13
2022-10-18T23:11:52.950Z,1.17
2022-10-18T23:14:22.633Z,1.20
2022-10-18T23:16:50.948Z,1.40
2022-10-18T23:19:19.290Z,1.45
2022-10-18T23:21:50.242Z,1.33
2022-10-18T23:24:18.506Z,1.20
2022-10-18T23:26:46.752Z,1.27
2022-10-18T23:29:15.022Z,1.38
2022-10-18T23:31:44.738Z,1.30
2022-10-18T23:34:13.073Z,1.30
2022-10-18T23:36:41.695Z,1.30
2022-10-18T23:39:11.618Z,1.17
2022-10-18T23:41:40.114Z,1.50
2022-10-18T23:44:09.033Z,1.30
2022-10-18T23:46:37.394Z,1.40
2022-10-18T23:49:07.010Z,1.20
2022-10-18T23:51:35.271Z,1.30
2022-10-18T23:54:03.541Z,1.58
2022-10-18T23:56:31.815Z,1.30
2022-10-18T23:59:00.064Z,1.60
